Terminal Aerodrome Forecast
Issued by NWS Milwaukee/Sullivan, WI

Home | Current Version | Previous Version | Text Only | Print | Product List | Glossary On
Versions: 1 2 3 4 5 6 7 8 9 10 11 12 13 14 15 16 17 18 19 20 21 22 23 24 25 26 27 28 29 30
000
FTUS43 KMKX 042343
TAFMKE
TAF
KMKE 042343Z 0500/0606 21004KT 1SM -SN OVC004
     FM050200 22004KT 3SM -SN BR OVC008
     FM050400 25008KT P6SM OVC015
     FM050900 25008KT P6SM BKN035
     FM051200 25007KT P6SM SCT200
     FM051600 22007KT P6SM BKN200
     FM052100 19010KT P6SM BKN140=

USA.gov is the U.S. government's official web portal to all federal, state and local government web resources and services.